Time;durP1;ratioP1;P1;durP2;ratioP2;P2;SDS_P1;SDS_P2;PMS_P1;PMS_P2;Temp;Humidity;BMP_temperature;BMP_pressure;BME280_temperature;BME280_humidity;BME280_pressure;Samples;Min_cycle;Max_cycle;Signal;HPM_P1;HPM_P2
2020/12/20 00:01:21;;;;;;;33.70;15.50;;;2.00;99.90;;;;;;5072132;28;20485;-51
2020/12/20 00:03:48;;;;;;;32.73;15.10;;;2.10;99.90;;;;;;5073645;28;20514;-50
2020/12/20 00:06:14;;;;;;;42.03;14.80;;;2.10;99.90;;;;;;5072546;28;20975;-50
2020/12/20 00:08:41;;;;;;;42.57;15.40;;;2.00;99.90;;;;;;5073125;28;20501;-50
2020/12/20 00:11:08;;;;;;;48.60;16.67;;;2.00;99.90;;;;;;5071905;28;20852;-50
2020/12/20 00:13:35;;;;;;;40.17;15.07;;;2.00;99.90;;;;;;5071692;28;20462;-50
2020/12/20 00:16:01;;;;;;;34.20;14.67;;;1.90;99.90;;;;;;5071492;28;20489;-50
2020/12/20 00:18:28;;;;;;;37.63;14.60;;;2.00;99.90;;;;;;5070717;28;20482;-50
2020/12/20 00:20:54;;;;;;;37.77;15.27;;;1.90;99.90;;;;;;5073164;28;20478;-50
2020/12/20 00:23:21;;;;;;;44.77;15.63;;;2.10;99.90;;;;;;5072192;28;20979;-50
2020/12/20 00:25:47;;;;;;;40.47;15.10;;;2.00;99.90;;;;;;5071797;28;20440;-50
2020/12/20 00:28:14;;;;;;;35.93;14.00;;;1.70;99.90;;;;;;5071100;28;20527;-50
2020/12/20 00:30:41;;;;;;;38.70;14.40;;;1.70;99.90;;;;;;5071820;28;20531;-49
2020/12/20 00:33:07;;;;;;;37.87;14.63;;;1.80;99.90;;;;;;5069958;28;20517;-50
2020/12/20 00:35:34;;;;;;;45.73;15.40;;;1.70;99.90;;;;;;5071179;28;20458;-50
2020/12/20 00:38:00;;;;;;;42.40;14.43;;;1.60;99.90;;;;;;5071600;28;20527;-50
2020/12/20 00:40:27;;;;;;;42.37;14.10;;;1.50;99.90;;;;;;5069645;28;20478;-50
2020/12/20 00:42:53;;;;;;;32.87;14.20;;;1.40;99.90;;;;;;5071671;28;20454;-50
2020/12/20 00:45:20;;;;;;;43.50;15.67;;;1.40;99.90;;;;;;5070188;28;20465;-50
2020/12/20 00:47:48;;;;;;;35.30;14.13;;;1.30;99.90;;;;;;5071189;28;20469;-50
2020/12/20 00:50:14;;;;;;;44.77;14.93;;;1.30;99.90;;;;;;5070663;28;20470;-51
2020/12/20 00:52:41;;;;;;;41.10;14.50;;;1.40;99.90;;;;;;5071461;28;20444;-50
2020/12/20 00:55:07;;;;;;;38.23;15.40;;;1.30;99.90;;;;;;5061856;28;20475;-50
2020/12/20 00:57:34;;;;;;;42.23;14.93;;;1.30;99.90;;;;;;5051437;28;20474;-50
2020/12/20 01:00:00;;;;;;;34.87;14.10;;;1.30;99.90;;;;;;5062799;28;20429;-50
2020/12/20 01:02:27;;;;;;;40.93;15.17;;;1.20;99.90;;;;;;5071109;28;20448;-50
2020/12/20 01:04:54;;;;;;;36.33;14.50;;;1.30;99.90;;;;;;5071359;28;20499;-50
2020/12/20 01:07:20;;;;;;;37.40;15.60;;;1.40;99.90;;;;;;5071159;28;20439;-50
2020/12/20 01:09:47;;;;;;;44.47;14.67;;;1.40;99.90;;;;;;5070059;28;20429;-50
2020/12/20 01:12:14;;;;;;;26.13;13.33;;;1.30;99.90;;;;;;5071265;28;20447;-50
2020/12/20 01:14:40;;;;;;;35.73;14.87;;;1.30;99.90;;;;;;5071203;28;20440;-50
2020/12/20 01:17:07;;;;;;;46.67;14.30;;;1.30;99.90;;;;;;5071038;28;20449;-50
2020/12/20 01:19:34;;;;;;;28.80;12.07;;;1.40;99.90;;;;;;5070419;28;20821;-50
2020/12/20 01:22:01;;;;;;;46.63;14.70;;;1.30;99.90;;;;;;5070871;28;20489;-50
2020/12/20 01:24:27;;;;;;;42.50;13.53;;;1.10;99.90;;;;;;5069682;28;20544;-50
2020/12/20 01:26:54;;;;;;;39.40;14.03;;;0.90;99.90;;;;;;5070947;28;20456;-50
2020/12/20 01:29:20;;;;;;;50.63;13.57;;;0.80;99.90;;;;;;5041826;28;839959;-50
2020/12/20 01:31:46;;;;;;;28.07;12.53;;;0.80;99.90;;;;;;5071964;28;20207;-50
2020/12/20 01:34:13;;;;;;;26.50;12.20;;;0.90;99.90;;;;;;5071904;28;20480;-50
2020/12/20 01:36:40;;;;;;;19.23;10.93;;;0.90;99.90;;;;;;5071336;28;20412;-51
2020/12/20 01:39:07;;;;;;;22.30;11.30;;;1.00;99.90;;;;;;5070112;28;20470;-50
2020/12/20 01:41:33;;;;;;;38.13;12.00;;;1.10;99.90;;;;;;5071447;28;20489;-50
2020/12/20 01:44:02;;;;;;;25.03;11.50;;;1.10;99.90;;;;;;5071509;28;20457;-51
2020/12/20 01:46:31;;;;;;;29.23;11.10;;;1.10;99.90;;;;;;5071282;28;20496;-51
2020/12/20 01:48:57;;;;;;;30.10;11.97;;;1.10;99.90;;;;;;5070972;28;20481;-51
2020/12/20 01:51:24;;;;;;;19.40;10.37;;;1.00;99.90;;;;;;5071192;28;20450;-50
2020/12/20 01:53:52;;;;;;;23.50;11.67;;;1.00;99.90;;;;;;5063292;28;20956;-51
2020/12/20 01:56:19;;;;;;;19.03;10.93;;;1.10;99.90;;;;;;5071297;28;20475;-50
2020/12/20 01:58:47;;;;;;;25.10;11.50;;;1.20;99.90;;;;;;5070720;28;20569;-50
2020/12/20 02:01:13;;;;;;;27.77;12.27;;;1.00;99.90;;;;;;5071084;28;20452;-50
2020/12/20 02:03:40;;;;;;;26.60;11.47;;;1.00;99.90;;;;;;5071515;28;20449;-51
2020/12/20 02:06:07;;;;;;;21.73;11.43;;;1.10;99.90;;;;;;5071250;28;20453;-51
2020/12/20 02:08:33;;;;;;;28.20;12.87;;;1.00;99.90;;;;;;5070001;28;20507;-51
2020/12/20 02:11:09;;;;;;;22.37;11.97;;;1.00;99.90;;;;;;5070645;28;20449;-51
2020/12/20 02:13:39;;;;;;;22.93;11.13;;;1.00;99.90;;;;;;5070462;28;20502;-51
2020/12/20 02:16:05;;;;;;;32.40;12.17;;;1.00;99.90;;;;;;5070695;28;20462;-51
2020/12/20 02:18:31;;;;;;;39.93;12.20;;;0.90;99.90;;;;;;5070698;28;20480;-51
2020/12/20 02:20:58;;;;;;;20.80;10.73;;;0.90;99.90;;;;;;5070602;28;20526;-51
2020/12/20 02:23:25;;;;;;;21.40;11.33;;;1.00;99.90;;;;;;5060035;28;20990;-50
2020/12/20 02:25:52;;;;;;;20.70;11.43;;;1.00;99.90;;;;;;5068704;28;20454;-51
2020/12/20 02:28:20;;;;;;;23.83;12.07;;;1.10;99.90;;;;;;5070411;28;20912;-51
2020/12/20 02:30:47;;;;;;;22.90;10.40;;;1.00;99.90;;;;;;5070688;28;20953;-51
2020/12/20 02:33:13;;;;;;;20.80;10.67;;;1.00;99.90;;;;;;5070632;28;20944;-51
2020/12/20 02:35:44;;;;;;;22.07;11.13;;;1.10;99.90;;;;;;5070752;28;20508;-51
2020/12/20 02:38:10;;;;;;;27.23;12.10;;;1.20;99.90;;;;;;5070024;28;21071;-51
2020/12/20 02:40:40;;;;;;;25.60;11.83;;;1.20;99.90;;;;;;5070304;28;20485;-51
2020/12/20 02:43:06;;;;;;;24.93;11.20;;;1.20;99.90;;;;;;5070496;28;20595;-51
2020/12/20 02:45:33;;;;;;;26.80;11.73;;;1.10;99.90;;;;;;5069217;28;20446;-51
2020/12/20 02:48:00;;;;;;;20.10;10.30;;;1.20;99.90;;;;;;5069529;28;20859;-51
2020/12/20 02:50:26;;;;;;;21.57;10.60;;;1.20;99.90;;;;;;5070515;28;20458;-51
2020/12/20 02:52:53;;;;;;;22.03;9.90;;;1.30;99.90;;;;;;5070234;28;20454;-51
2020/12/20 02:55:19;;;;;;;26.63;11.03;;;1.20;99.90;;;;;;5070827;28;20472;-51
2020/12/20 02:57:47;;;;;;;23.47;11.07;;;1.20;99.90;;;;;;5070332;28;20527;-50
2020/12/20 03:00:14;;;;;;;19.00;9.80;;;1.20;99.90;;;;;;5054578;28;20447;-51
2020/12/20 03:02:41;;;;;;;21.27;10.63;;;1.20;99.90;;;;;;5070577;28;20458;-51
2020/12/20 03:05:07;;;;;;;23.50;10.40;;;1.30;99.90;;;;;;5070221;28;20451;-50
2020/12/20 03:07:34;;;;;;;20.77;10.10;;;1.30;99.90;;;;;;5069740;28;20481;-51
2020/12/20 03:10:00;;;;;;;19.90;10.90;;;1.30;99.90;;;;;;5070030;28;20447;-51
2020/12/20 03:12:26;;;;;;;29.47;10.40;;;1.10;99.90;;;;;;5069906;28;20447;-50
2020/12/20 03:14:54;;;;;;;19.13;11.07;;;1.30;99.90;;;;;;5070585;28;20499;-51
2020/12/20 03:17:20;;;;;;;29.10;11.20;;;1.30;99.90;;;;;;5070097;28;20454;-50
2020/12/20 03:19:48;;;;;;;21.57;10.43;;;1.20;99.90;;;;;;5069613;28;20933;-51
2020/12/20 03:22:14;;;;;;;18.90;10.37;;;1.20;99.90;;;;;;5069465;28;21257;-51
2020/12/20 03:24:41;;;;;;;24.40;10.80;;;1.20;99.90;;;;;;5070279;28;20454;-51
2020/12/20 03:27:08;;;;;;;20.70;10.30;;;1.30;99.90;;;;;;5068596;28;20495;-50
2020/12/20 03:29:34;;;;;;;19.57;10.00;;;1.30;99.90;;;;;;5066671;28;20458;-51
2020/12/20 03:32:02;;;;;;;18.20;9.87;;;1.30;99.90;;;;;;5050173;28;20463;-51
2020/12/20 03:34:28;;;;;;;21.60;11.37;;;1.30;99.90;;;;;;5058813;28;20811;-51
2020/12/20 03:36:55;;;;;;;32.70;11.97;;;1.40;99.90;;;;;;5069560;28;20833;-51
2020/12/20 03:39:21;;;;;;;39.80;12.80;;;1.30;99.90;;;;;;5069779;28;21007;-51
2020/12/20 03:41:47;;;;;;;18.53;9.80;;;1.20;99.90;;;;;;5067905;28;20500;-51
2020/12/20 03:44:14;;;;;;;20.83;10.97;;;1.20;99.90;;;;;;5050198;28;20496;-51
2020/12/20 03:46:40;;;;;;;28.27;10.93;;;1.30;99.90;;;;;;5068292;28;20443;-51
2020/12/20 03:49:08;;;;;;;25.13;11.23;;;1.40;99.90;;;;;;5069693;28;20474;-51
2020/12/20 03:51:34;;;;;;;19.53;10.53;;;1.50;99.90;;;;;;5069705;28;20447;-51
2020/12/20 03:54:03;;;;;;;21.33;11.37;;;1.40;99.90;;;;;;5069678;28;20472;-51
2020/12/20 03:56:29;;;;;;;25.70;11.27;;;1.40;99.90;;;;;;5069087;28;20446;-51
2020/12/20 03:58:59;;;;;;;26.53;11.40;;;1.40;99.90;;;;;;5069732;28;20995;-52
2020/12/20 04:01:25;;;;;;;39.33;12.10;;;1.50;99.90;;;;;;5073153;28;20508;-52
2020/12/20 04:03:52;;;;;;;22.77;11.33;;;1.50;99.90;;;;;;5073658;28;20446;-51
2020/12/20 04:06:19;;;;;;;18.13;11.10;;;1.40;99.90;;;;;;5073375;28;20450;-51
2020/12/20 04:08:46;;;;;;;24.77;12.13;;;1.40;99.90;;;;;;5072283;28;20467;-51
2020/12/20 04:11:13;;;;;;;28.30;12.30;;;1.30;99.90;;;;;;5073290;28;20442;-51
2020/12/20 04:13:39;;;;;;;27.17;11.97;;;1.40;99.90;;;;;;5073476;28;20453;-51
2020/12/20 04:16:06;;;;;;;23.33;10.77;;;1.40;99.90;;;;;;5069881;28;20452;-51
2020/12/20 04:18:33;;;;;;;30.50;11.03;;;1.40;99.90;;;;;;5072583;28;20462;-51
2020/12/20 04:20:59;;;;;;;22.23;11.13;;;1.40;99.90;;;;;;5069458;28;20537;-51
2020/12/20 04:23:27;;;;;;;19.97;11.40;;;1.40;99.90;;;;;;5076252;28;20983;-51
2020/12/20 04:25:54;;;;;;;19.50;11.17;;;1.50;99.90;;;;;;5077619;28;20457;-51
2020/12/20 04:28:21;;;;;;;23.17;12.10;;;1.50;99.90;;;;;;5077836;28;20906;-51
2020/12/20 04:30:48;;;;;;;22.17;11.37;;;1.60;99.90;;;;;;5077350;28;20446;-51
2020/12/20 04:33:14;;;;;;;26.80;11.73;;;1.70;99.90;;;;;;5077861;28;20454;-50
2020/12/20 04:35:41;;;;;;;27.20;13.30;;;1.70;99.90;;;;;;5077419;28;20454;-51
2020/12/20 04:38:07;;;;;;;22.60;11.63;;;1.70;99.90;;;;;;5076579;28;20847;-51
2020/12/20 04:40:35;;;;;;;23.83;11.90;;;1.80;99.90;;;;;;5077501;28;20874;-51
2020/12/20 04:43:03;;;;;;;28.37;11.93;;;1.80;99.90;;;;;;5077989;28;20507;-50
2020/12/20 04:45:30;;;;;;;25.27;11.50;;;1.70;99.90;;;;;;5077756;28;20827;-51
2020/12/20 04:47:57;;;;;;;22.00;11.43;;;1.60;99.90;;;;;;5076792;28;20537;-51
2020/12/20 04:50:24;;;;;;;22.27;12.70;;;1.60;99.90;;;;;;5077724;28;20503;-51
2020/12/20 04:52:53;;;;;;;27.53;12.80;;;1.40;99.90;;;;;;5077562;28;20446;-51
2020/12/20 04:55:22;;;;;;;20.57;10.70;;;1.50;99.90;;;;;;5077801;28;20544;-51
2020/12/20 04:57:50;;;;;;;24.53;12.00;;;1.40;99.90;;;;;;5076939;28;20471;-51
2020/12/20 05:00:18;;;;;;;20.90;10.40;;;1.40;99.90;;;;;;5077457;28;20451;-50
2020/12/20 05:02:44;;;;;;;20.47;9.90;;;1.40;99.90;;;;;;5077426;28;20482;-51
2020/12/20 05:05:11;;;;;;;26.07;10.27;;;1.40;99.90;;;;;;5075803;28;20547;-50
2020/12/20 05:07:38;;;;;;;25.13;11.03;;;1.30;99.90;;;;;;5076486;28;20470;-51
2020/12/20 05:10:05;;;;;;;31.17;11.07;;;1.40;99.90;;;;;;5076776;28;20939;-51
2020/12/20 05:12:34;;;;;;;19.67;10.80;;;1.40;99.90;;;;;;5076575;28;20449;-50
2020/12/20 05:15:18;;;;;;;22.57;11.33;;;1.30;99.90;;;;;;5075968;28;20457;-51
2020/12/20 05:17:45;;;;;;;19.90;10.90;;;1.40;99.90;;;;;;5071242;28;20552;-50
2020/12/20 05:20:14;;;;;;;22.80;10.80;;;1.40;99.90;;;;;;5071484;28;20425;-51
2020/12/20 05:22:41;;;;;;;21.10;11.23;;;1.50;99.90;;;;;;5071802;28;20482;-50
2020/12/20 05:25:16;;;;;;;26.50;12.57;;;1.50;99.90;;;;;;5071877;28;20504;-51
2020/12/20 05:27:43;;;;;;;21.13;10.90;;;1.60;99.90;;;;;;5057565;28;20925;-51
2020/12/20 05:30:14;;;;;;;27.07;11.20;;;1.60;99.90;;;;;;5053440;28;20447;-49
2020/12/20 05:32:41;;;;;;;31.57;11.80;;;1.70;99.90;;;;;;5071412;28;20458;-50
2020/12/20 05:35:09;;;;;;;22.40;11.10;;;1.70;99.90;;;;;;5071726;28;20450;-50
2020/12/20 05:37:37;;;;;;;23.43;11.30;;;1.60;99.90;;;;;;5070624;28;21041;-50
2020/12/20 05:40:05;;;;;;;29.60;12.80;;;1.60;99.90;;;;;;5071114;28;20443;-50
2020/12/20 05:42:32;;;;;;;29.80;11.63;;;1.60;99.90;;;;;;5070890;28;20477;-51
2020/12/20 05:45:08;;;;;;;27.07;12.03;;;1.60;99.90;;;;;;5070976;28;20512;-50
2020/12/20 05:47:35;;;;;;;25.87;11.97;;;1.70;99.90;;;;;;5067400;28;20473;-51
2020/12/20 05:50:03;;;;;;;22.17;11.73;;;1.70;99.90;;;;;;5063465;28;20525;-51
2020/12/20 05:52:29;;;;;;;31.47;12.27;;;1.70;99.90;;;;;;5060188;28;20447;-51
2020/12/20 05:54:55;;;;;;;22.40;11.80;;;1.70;99.90;;;;;;5071209;28;20525;-50
2020/12/20 05:57:24;;;;;;;30.47;12.93;;;1.70;99.90;;;;;;5060600;28;21272;-51
2020/12/20 05:59:52;;;;;;;25.07;12.70;;;1.70;99.90;;;;;;5054719;28;20478;-51
2020/12/20 06:02:19;;;;;;;22.40;10.80;;;1.70;99.90;;;;;;5070099;28;20479;-51
2020/12/20 06:04:48;;;;;;;23.60;12.73;;;1.70;99.90;;;;;;5071072;28;20457;-51
2020/12/20 06:07:15;;;;;;;28.00;12.10;;;1.70;99.90;;;;;;5061604;28;20454;-50
2020/12/20 06:09:54;;;;;;;27.90;12.53;;;1.70;99.90;;;;;;5051444;28;20512;-51
2020/12/20 06:12:22;;;;;;;32.07;11.90;;;1.80;99.90;;;;;;5071103;28;20438;-50
2020/12/20 06:14:49;;;;;;;21.90;11.33;;;1.80;99.90;;;;;;5070769;28;20458;-50
2020/12/20 06:17:17;;;;;;;34.10;13.57;;;1.80;99.90;;;;;;5059184;28;20454;-50
2020/12/20 06:19:53;;;;;;;21.30;10.97;;;1.80;99.90;;;;;;5070457;28;20500;-50
2020/12/20 06:22:28;;;;;;;29.93;13.77;;;1.80;99.90;;;;;;5070516;28;20543;-50
2020/12/20 06:24:57;;;;;;;24.60;12.50;;;1.70;99.90;;;;;;5070815;28;20442;-50
2020/12/20 06:27:28;;;;;;;32.97;13.30;;;1.80;99.90;;;;;;5069219;28;20489;-50
2020/12/20 06:29:57;;;;;;;31.17;13.00;;;1.90;99.90;;;;;;5070210;28;20878;-51
2020/12/20 06:32:30;;;;;;;29.40;11.63;;;1.90;99.90;;;;;;5070763;28;20944;-50
2020/12/20 06:34:59;;;;;;;29.73;13.07;;;1.90;99.90;;;;;;5070559;28;20537;-50
2020/12/20 06:37:26;;;;;;;32.73;12.77;;;1.90;99.90;;;;;;5061727;28;20472;-50
2020/12/20 06:39:53;;;;;;;33.73;13.73;;;1.90;99.90;;;;;;5050563;28;20448;-50
2020/12/20 06:42:39;;;;;;;36.93;13.57;;;1.90;99.90;;;;;;5057686;28;20456;-51
2020/12/20 06:45:17;;;;;;;29.23;13.13;;;1.90;99.90;;;;;;5070147;28;20477;-51
2020/12/20 06:47:46;;;;;;;32.90;13.97;;;2.00;99.90;;;;;;5069925;28;20552;-50
2020/12/20 06:50:13;;;;;;;35.67;13.20;;;1.80;99.90;;;;;;5070512;28;20441;-50
2020/12/20 06:52:47;;;;;;;38.03;11.73;;;1.70;99.90;;;;;;5070642;28;20465;-50
2020/12/20 06:55:15;;;;;;;27.47;12.70;;;1.70;99.90;;;;;;5058346;28;20450;-51
2020/12/20 06:58:13;;;;;;;28.03;12.93;;;1.80;99.90;;;;;;5050234;28;20467;-51
2020/12/20 07:00:54;;;;;;;22.80;11.53;;;1.80;99.90;;;;;;5065172;28;20443;-50
2020/12/20 07:03:42;;;;;;;26.03;11.87;;;1.90;99.90;;;;;;5069523;28;20963;-50
2020/12/20 07:06:19;;;;;;;27.53;11.73;;;1.90;99.90;;;;;;5087350;28;20481;-50
2020/12/20 07:08:57;;;;;;;30.33;11.73;;;1.90;99.90;;;;;;5069279;28;20481;-51
2020/12/20 07:11:25;;;;;;;27.40;10.17;;;1.90;99.90;;;;;;5055423;28;20450;-51
2020/12/20 07:13:54;;;;;;;23.17;10.83;;;1.90;99.90;;;;;;5055850;28;20455;-50
2020/12/20 07:16:22;;;;;;;30.67;12.20;;;1.90;99.90;;;;;;5070089;28;20478;-49
2020/12/20 07:18:54;;;;;;;18.90;10.30;;;1.90;99.90;;;;;;5069660;28;20475;-50
2020/12/20 07:21:46;;;;;;;21.53;10.00;;;1.90;99.90;;;;;;5070148;28;20473;-50
2020/12/20 07:24:17;;;;;;;24.63;11.13;;;2.00;99.90;;;;;;5069719;28;20446;-50
2020/12/20 07:26:44;;;;;;;29.63;11.80;;;2.00;99.90;;;;;;5070086;28;20449;-50
2020/12/20 07:29:10;;;;;;;28.83;12.40;;;2.00;99.90;;;;;;5077801;28;20991;-50
2020/12/20 07:31:37;;;;;;;33.60;12.10;;;1.90;99.90;;;;;;5088392;28;20468;-50
2020/12/20 07:34:05;;;;;;;20.13;10.60;;;1.90;99.90;;;;;;5070741;28;20442;-50
2020/12/20 07:36:32;;;;;;;31.77;11.67;;;1.90;99.90;;;;;;5073444;28;20454;-50
2020/12/20 07:39:03;;;;;;;20.03;10.97;;;1.90;99.90;;;;;;5073431;28;20497;-50
2020/12/20 07:41:30;;;;;;;26.53;11.20;;;1.80;99.90;;;;;;5073436;28;20485;-50
2020/12/20 07:43:59;;;;;;;31.23;11.90;;;1.80;99.90;;;;;;5068918;28;20451;-50
2020/12/20 07:46:25;;;;;;;20.07;10.40;;;1.70;99.90;;;;;;5077856;28;20860;-50
2020/12/20 07:48:52;;;;;;;18.57;10.50;;;1.80;99.90;;;;;;5093705;28;20888;-50
2020/12/20 07:51:20;;;;;;;23.40;11.00;;;2.00;99.90;;;;;;5093981;28;20442;-50
2020/12/20 07:53:48;;;;;;;29.43;11.10;;;2.00;99.90;;;;;;5082668;28;20836;-50
2020/12/20 07:56:23;;;;;;;19.17;10.73;;;1.80;99.90;;;;;;5079615;28;20438;-50
2020/12/20 07:58:51;;;;;;;24.20;11.60;;;1.70;99.90;;;;;;5087151;28;20531;-50
2020/12/20 08:01:17;;;;;;;22.77;12.50;;;1.80;99.90;;;;;;5093555;28;21033;-50
2020/12/20 08:03:44;;;;;;;17.97;10.23;;;1.70;99.90;;;;;;5091994;28;20514;-50
2020/12/20 08:06:12;;;;;;;33.57;15.60;;;1.70;99.90;;;;;;5073238;28;20447;-50
2020/12/20 08:08:39;;;;;;;25.50;11.83;;;1.70;99.90;;;;;;5072691;28;20458;-50
2020/12/20 08:11:18;;;;;;;23.60;11.70;;;1.60;99.90;;;;;;5071872;28;20455;-50
2020/12/20 08:13:52;;;;;;;22.77;10.50;;;1.80;99.90;;;;;;5072532;28;20503;-50
2020/12/20 08:16:25;;;;;;;25.27;13.17;;;1.60;99.90;;;;;;5087033;28;20898;-50
2020/12/20 08:18:54;;;;;;;26.60;11.47;;;1.60;99.90;;;;;;5068669;28;20547;-50
2020/12/20 08:21:26;;;;;;;21.80;11.27;;;1.50;99.90;;;;;;5073008;28;20493;-51
2020/12/20 08:23:55;;;;;;;21.67;11.67;;;1.30;99.90;;;;;;5072197;28;20447;-50
2020/12/20 08:26:32;;;;;;;21.10;11.40;;;1.40;99.90;;;;;;5064858;28;20454;-50
2020/12/20 08:29:03;;;;;;;23.13;9.77;;;1.50;99.90;;;;;;5071063;28;20539;-50
2020/12/20 08:31:30;;;;;;;20.50;11.13;;;1.60;99.90;;;;;;5072780;28;20446;-50
2020/12/20 08:33:57;;;;;;;25.93;12.43;;;1.60;99.90;;;;;;5072942;28;20446;-50
2020/12/20 08:36:24;;;;;;;23.77;11.73;;;1.50;99.90;;;;;;5072859;28;20447;-50
2020/12/20 08:38:51;;;;;;;20.60;11.43;;;1.50;99.90;;;;;;5072452;28;20461;-51
2020/12/20 08:41:20;;;;;;;20.97;11.07;;;1.60;99.90;;;;;;5071889;28;20483;-50
2020/12/20 08:43:47;;;;;;;26.80;11.60;;;1.80;99.90;;;;;;5071047;28;21024;-50
2020/12/20 08:46:28;;;;;;;19.17;9.90;;;1.80;99.90;;;;;;5071079;28;20472;-50
2020/12/20 08:49:09;;;;;;;21.77;10.70;;;1.70;99.90;;;;;;5071360;28;20805;-51
2020/12/20 08:51:35;;;;;;;19.40;10.57;;;1.70;99.90;;;;;;5072041;28;20445;-51
2020/12/20 08:54:05;;;;;;;31.57;12.13;;;1.80;99.90;;;;;;5071901;28;20512;-51
2020/12/20 08:56:31;;;;;;;20.50;11.10;;;1.60;99.90;;;;;;5071391;28;20454;-50
2020/12/20 08:58:59;;;;;;;19.47;10.80;;;1.70;99.90;;;;;;5072088;28;20463;-50
2020/12/20 09:01:41;;;;;;;20.83;11.10;;;1.80;99.90;;;;;;5070891;28;20460;-51
2020/12/20 09:04:10;;;;;;;23.13;13.00;;;1.90;99.90;;;;;;5071928;28;20486;-49
2020/12/20 09:06:36;;;;;;;32.50;13.67;;;1.80;99.90;;;;;;5072086;28;20511;-50
2020/12/20 09:09:03;;;;;;;31.27;13.77;;;1.80;99.90;;;;;;5071744;28;20862;-50
2020/12/20 09:11:30;;;;;;;18.63;11.00;;;1.60;99.90;;;;;;5071875;28;20454;-50
2020/12/20 09:14:08;;;;;;;26.30;13.17;;;1.60;99.90;;;;;;5072030;28;20450;-51
2020/12/20 09:16:42;;;;;;;30.07;13.20;;;1.70;99.90;;;;;;5071864;28;20985;-50
2020/12/20 09:19:10;;;;;;;36.37;15.20;;;1.90;99.90;;;;;;5060934;28;20515;-50
2020/12/20 09:21:37;;;;;;;29.03;14.83;;;1.80;99.90;;;;;;5070090;28;20500;-50
2020/12/20 09:24:07;;;;;;;32.23;16.03;;;2.10;99.90;;;;;;5073472;28;20507;-49
2020/12/20 09:26:34;;;;;;;29.10;15.40;;;2.30;99.90;;;;;;5071234;28;20454;-49
2020/12/20 09:29:07;;;;;;;26.80;13.23;;;2.40;99.90;;;;;;5070650;28;20885;-50
2020/12/20 09:31:34;;;;;;;24.27;13.10;;;2.50;99.90;;;;;;5079936;28;20443;-50
2020/12/20 09:34:03;;;;;;;21.23;12.07;;;2.60;99.90;;;;;;5070920;28;20453;-49
2020/12/20 09:36:31;;;;;;;25.90;13.47;;;2.70;99.90;;;;;;5071023;28;20486;-50
2020/12/20 09:39:04;;;;;;;22.33;12.37;;;2.60;99.90;;;;;;5062613;28;20482;-49
2020/12/20 09:41:32;;;;;;;23.03;12.40;;;2.70;99.90;;;;;;5059086;28;20485;-50
2020/12/20 09:44:01;;;;;;;27.73;13.47;;;2.90;99.90;;;;;;5070044;28;20462;-50
2020/12/20 09:46:29;;;;;;;24.20;12.50;;;3.00;99.90;;;;;;5070715;28;20452;-50
2020/12/20 09:49:01;;;;;;;27.87;14.10;;;3.00;99.90;;;;;;5070015;28;20469;-50
2020/12/20 09:51:30;;;;;;;25.87;13.47;;;2.90;99.90;;;;;;5070852;28;20452;-49
2020/12/20 09:53:57;;;;;;;25.67;13.60;;;2.90;99.90;;;;;;5070757;28;20450;-49
2020/12/20 09:56:23;;;;;;;21.30;12.40;;;3.10;99.90;;;;;;5069602;28;20534;-50
2020/12/20 09:58:50;;;;;;;29.40;14.80;;;3.00;99.90;;;;;;5070003;28;20553;-50
2020/12/20 10:01:17;;;;;;;24.23;13.37;;;3.00;99.90;;;;;;5070271;28;21015;-49
2020/12/20 10:03:44;;;;;;;29.50;13.60;;;3.10;99.90;;;;;;5065424;28;20509;-50
2020/12/20 10:06:11;;;;;;;24.80;12.63;;;3.10;99.90;;;;;;5066422;28;20538;-50
2020/12/20 10:08:40;;;;;;;34.00;15.83;;;2.90;99.90;;;;;;5070135;28;20497;-49
2020/12/20 10:11:07;;;;;;;26.40;14.33;;;2.90;99.90;;;;;;5069530;28;20504;-50
2020/12/20 10:13:34;;;;;;;28.67;13.83;;;2.90;99.90;;;;;;5070264;28;20458;-50
2020/12/20 10:16:00;;;;;;;27.47;14.13;;;2.80;99.90;;;;;;5070122;28;20450;-50
2020/12/20 10:18:27;;;;;;;23.73;12.47;;;2.90;99.90;;;;;;5069835;28;20466;-49
2020/12/20 10:20:53;;;;;;;24.80;12.00;;;3.00;99.90;;;;;;5070187;28;20453;-50
2020/12/20 10:23:20;;;;;;;24.73;13.60;;;3.00;99.90;;;;;;5070610;28;20545;-50
2020/12/20 10:25:47;;;;;;;22.83;12.40;;;3.00;99.90;;;;;;5070180;28;20829;-50
2020/12/20 10:28:13;;;;;;;23.50;13.67;;;3.00;99.90;;;;;;5069391;28;20477;-50
2020/12/20 10:30:40;;;;;;;25.07;13.53;;;3.20;99.90;;;;;;5070023;28;20827;-50
2020/12/20 10:33:07;;;;;;;23.90;13.87;;;3.30;99.90;;;;;;5069003;28;20451;-50
2020/12/20 10:35:33;;;;;;;28.70;13.73;;;3.30;99.90;;;;;;5070504;28;20972;-50
2020/12/20 10:38:00;;;;;;;26.60;14.20;;;3.20;99.90;;;;;;5069993;28;21004;-50
2020/12/20 10:40:27;;;;;;;28.80;15.90;;;3.10;99.90;;;;;;5069725;28;20444;-50
2020/12/20 10:42:55;;;;;;;20.90;12.23;;;3.10;99.90;;;;;;5069532;28;20521;-50
2020/12/20 10:45:22;;;;;;;22.00;11.93;;;3.00;99.90;;;;;;5068079;28;20474;-50
2020/12/20 10:47:49;;;;;;;22.60;10.93;;;2.90;99.90;;;;;;5067295;28;20478;-50
2020/12/20 10:50:18;;;;;;;25.17;12.60;;;2.90;99.90;;;;;;5068960;28;20451;-50
2020/12/20 10:52:45;;;;;;;22.50;11.50;;;2.90;99.90;;;;;;5066619;28;20435;-49
2020/12/20 10:55:12;;;;;;;22.77;11.50;;;2.90;99.90;;;;;;5069363;28;20516;-50
2020/12/20 10:57:39;;;;;;;26.03;12.43;;;2.90;99.90;;;;;;5069387;28;20470;-50
2020/12/20 11:00:06;;;;;;;20.30;11.50;;;2.90;99.90;;;;;;5069374;28;20443;-49
2020/12/20 11:02:33;;;;;;;24.43;11.77;;;3.00;99.90;;;;;;5070066;28;20486;-49
2020/12/20 11:04:59;;;;;;;23.00;12.00;;;2.90;99.90;;;;;;5066772;28;20528;-50
2020/12/20 11:07:26;;;;;;;20.23;11.80;;;3.00;99.90;;;;;;5061479;28;20474;-49
2020/12/20 11:09:52;;;;;;;20.57;11.57;;;3.10;99.90;;;;;;5063237;28;20465;-50
2020/12/20 11:12:19;;;;;;;22.80;11.87;;;3.20;99.90;;;;;;5065054;28;20455;-50
2020/12/20 11:14:45;;;;;;;25.67;12.43;;;3.30;99.90;;;;;;5065903;28;20546;-50
2020/12/20 11:17:13;;;;;;;34.23;16.90;;;3.30;99.90;;;;;;5065208;28;20913;-50
2020/12/20 11:19:39;;;;;;;28.90;14.80;;;3.10;99.90;;;;;;5064857;28;20466;-50
2020/12/20 11:22:05;;;;;;;32.83;16.47;;;3.00;99.90;;;;;;5064980;28;20485;-50
2020/12/20 11:24:32;;;;;;;32.57;15.53;;;2.90;99.90;;;;;;5066282;28;20468;-50
2020/12/20 11:26:58;;;;;;;31.67;15.53;;;2.90;99.90;;;;;;5069891;28;20512;-50
2020/12/20 11:29:25;;;;;;;32.90;15.77;;;3.10;99.90;;;;;;5065188;28;20842;-49
2020/12/20 11:31:51;;;;;;;32.17;15.87;;;3.10;99.90;;;;;;5066965;28;20520;-49
2020/12/20 11:34:22;;;;;;;36.60;16.67;;;2.90;99.90;;;;;;5068445;28;20473;-49
2020/12/20 11:36:49;;;;;;;32.83;16.10;;;3.10;99.90;;;;;;5064840;28;20560;-50
2020/12/20 11:39:22;;;;;;;33.30;16.30;;;3.30;99.90;;;;;;5065368;28;20493;-49
2020/12/20 11:41:49;;;;;;;38.40;16.40;;;3.50;99.90;;;;;;5064321;28;20513;-49
2020/12/20 11:44:15;;;;;;;31.60;15.73;;;3.50;99.90;;;;;;5065341;28;20466;-50
2020/12/20 11:46:42;;;;;;;31.03;14.70;;;3.40;99.90;;;;;;5065007;28;20455;-49
2020/12/20 11:49:08;;;;;;;25.67;14.40;;;3.40;99.90;;;;;;5069351;28;20540;-50
2020/12/20 11:51:35;;;;;;;26.03;13.93;;;3.60;99.90;;;;;;5065596;28;20533;-50
2020/12/20 11:54:05;;;;;;;27.03;13.07;;;3.60;99.90;;;;;;5064804;28;20510;-49
2020/12/20 11:56:32;;;;;;;33.13;15.80;;;3.50;99.90;;;;;;5067482;28;20982;-50
2020/12/20 11:58:58;;;;;;;26.42;14.13;;;3.50;99.90;;;;;;5065022;28;20596;-49
2020/12/20 12:01:27;;;;;;;28.83;14.67;;;3.60;99.90;;;;;;5065583;28;20242;-49
2020/12/20 12:03:53;;;;;;;29.83;15.80;;;3.60;99.90;;;;;;5065319;28;20458;-50
2020/12/20 12:06:20;;;;;;;30.87;15.90;;;3.70;99.90;;;;;;5066133;28;20829;-49
2020/12/20 12:08:48;;;;;;;28.60;14.83;;;3.80;99.90;;;;;;5065380;28;20486;-50
2020/12/20 12:11:18;;;;;;;29.50;15.20;;;3.80;99.90;;;;;;5073102;28;20457;-49
2020/12/20 12:13:45;;;;;;;28.90;15.30;;;3.70;99.90;;;;;;5071955;28;20821;-49
2020/12/20 12:16:13;;;;;;;31.73;15.27;;;3.70;99.90;;;;;;5067702;28;20466;-50
2020/12/20 12:18:39;;;;;;;33.40;16.07;;;3.60;99.90;;;;;;5064208;28;21003;-51
2020/12/20 12:21:11;;;;;;;29.67;15.47;;;3.50;99.90;;;;;;5063199;28;20448;-50
2020/12/20 12:23:37;;;;;;;27.33;15.17;;;3.60;99.90;;;;;;5064525;28;20459;-50
2020/12/20 12:26:05;;;;;;;27.50;15.30;;;3.70;99.90;;;;;;5064753;28;20459;-49
2020/12/20 12:28:31;;;;;;;29.30;14.93;;;3.90;99.90;;;;;;5064829;28;20498;-50
2020/12/20 12:30:58;;;;;;;32.57;16.67;;;3.80;99.90;;;;;;5067261;28;20463;-49
2020/12/20 12:33:24;;;;;;;33.90;15.93;;;3.90;99.90;;;;;;5064106;28;20467;-48
2020/12/20 12:35:51;;;;;;;31.03;15.80;;;3.80;99.90;;;;;;5068454;28;20515;-50
2020/12/20 12:38:17;;;;;;;34.20;19.13;;;3.60;99.90;;;;;;5077787;28;20473;-50
2020/12/20 12:40:43;;;;;;;32.10;15.70;;;3.60;99.90;;;;;;5081017;28;20525;-50
2020/12/20 12:43:11;;;;;;;31.80;15.63;;;3.60;99.90;;;;;;5064140;28;20479;-50